sensor_id;sensor_type;location;lat;lon;timestamp;P1;durP1;ratioP1;P2;durP2;ratioP2
20986;SDS011;10652;50.306;8.570;2023-06-24T00:01:54;3.97;;;3.60;;
20986;SDS011;10652;50.306;8.570;2023-06-24T00:05:57;4.43;;;4.03;;
20986;SDS011;10652;50.306;8.570;2023-06-24T00:09:59;5.85;;;3.70;;
20986;SDS011;10652;50.306;8.570;2023-06-24T00:14:01;5.05;;;3.70;;
20986;SDS011;10652;50.306;8.570;2023-06-24T00:18:03;4.07;;;3.47;;
20986;SDS011;10652;50.306;8.570;2023-06-24T00:22:08;4.20;;;3.80;;
20986;SDS011;10652;50.306;8.570;2023-06-24T00:26:10;3.72;;;3.33;;
20986;SDS011;10652;50.306;8.570;2023-06-24T00:30:12;3.95;;;3.55;;
20986;SDS011;10652;50.306;8.570;2023-06-24T00:34:15;4.47;;;3.35;;
20986;SDS011;10652;50.306;8.570;2023-06-24T00:38:18;4.30;;;3.75;;
20986;SDS011;10652;50.306;8.570;2023-06-24T00:42:20;4.15;;;3.58;;
20986;SDS011;10652;50.306;8.570;2023-06-24T00:46:23;4.50;;;4.10;;
20986;SDS011;10652;50.306;8.570;2023-06-24T00:50:28;5.35;;;3.88;;
20986;SDS011;10652;50.306;8.570;2023-06-24T00:54:30;4.63;;;3.70;;
20986;SDS011;10652;50.306;8.570;2023-06-24T00:58:34;4.15;;;3.75;;
20986;SDS011;10652;50.306;8.570;2023-06-24T01:02:38;4.97;;;4.47;;
20986;SDS011;10652;50.306;8.570;2023-06-24T01:06:41;4.47;;;4.05;;
20986;SDS011;10652;50.306;8.570;2023-06-24T01:10:45;4.47;;;3.95;;
20986;SDS011;10652;50.306;8.570;2023-06-24T01:14:48;4.55;;;4.15;;
20986;SDS011;10652;50.306;8.570;2023-06-24T01:18:52;7.32;;;3.97;;
20986;SDS011;10652;50.306;8.570;2023-06-24T01:27:29;4.40;;;3.95;;
20986;SDS011;10652;50.306;8.570;2023-06-24T01:31:47;4.10;;;3.55;;
20986;SDS011;10652;50.306;8.570;2023-06-24T01:35:55;4.05;;;3.47;;
20986;SDS011;10652;50.306;8.570;2023-06-24T01:44:13;6.07;;;4.53;;
20986;SDS011;10652;50.306;8.570;2023-06-24T01:48:18;8.50;;;6.68;;
20986;SDS011;10652;50.306;8.570;2023-06-24T01:52:27;5.45;;;4.45;;
20986;SDS011;10652;50.306;8.570;2023-06-24T01:56:31;5.47;;;4.30;;
20986;SDS011;10652;50.306;8.570;2023-06-24T02:00:36;4.40;;;3.83;;
20986;SDS011;10652;50.306;8.570;2023-06-24T02:04:39;4.80;;;4.30;;
20986;SDS011;10652;50.306;8.570;2023-06-24T02:08:42;5.57;;;4.18;;
20986;SDS011;10652;50.306;8.570;2023-06-24T02:12:46;5.75;;;4.07;;
20986;SDS011;10652;50.306;8.570;2023-06-24T02:16:49;4.47;;;3.92;;
20986;SDS011;10652;50.306;8.570;2023-06-24T02:20:59;4.38;;;3.67;;
20986;SDS011;10652;50.306;8.570;2023-06-24T02:25:02;4.72;;;4.20;;
20986;SDS011;10652;50.306;8.570;2023-06-24T02:29:10;5.38;;;3.92;;
20986;SDS011;10652;50.306;8.570;2023-06-24T02:37:18;4.75;;;4.28;;
20986;SDS011;10652;50.306;8.570;2023-06-24T02:41:21;4.65;;;4.15;;
20986;SDS011;10652;50.306;8.570;2023-06-24T02:45:24;4.35;;;3.90;;
20986;SDS011;10652;50.306;8.570;2023-06-24T02:49:27;4.93;;;3.60;;
20986;SDS011;10652;50.306;8.570;2023-06-24T02:53:29;4.45;;;3.55;;
20986;SDS011;10652;50.306;8.570;2023-06-24T02:57:33;4.68;;;4.22;;
20986;SDS011;10652;50.306;8.570;2023-06-24T03:01:58;6.53;;;3.90;;
20986;SDS011;10652;50.306;8.570;2023-06-24T03:06:01;4.53;;;3.75;;
20986;SDS011;10652;50.306;8.570;2023-06-24T03:10:05;6.57;;;3.50;;
20986;SDS011;10652;50.306;8.570;2023-06-24T03:14:08;4.57;;;2.97;;
20986;SDS011;10652;50.306;8.570;2023-06-24T03:18:16;6.55;;;3.65;;
20986;SDS011;10652;50.306;8.570;2023-06-24T03:22:21;6.05;;;3.65;;
20986;SDS011;10652;50.306;8.570;2023-06-24T03:26:34;6.63;;;4.20;;
20986;SDS011;10652;50.306;8.570;2023-06-24T03:30:39;5.32;;;3.20;;
20986;SDS011;10652;50.306;8.570;2023-06-24T03:34:41;6.45;;;3.28;;
20986;SDS011;10652;50.306;8.570;2023-06-24T03:38:44;6.38;;;3.22;;
20986;SDS011;10652;50.306;8.570;2023-06-24T03:42:47;3.70;;;3.30;;
20986;SDS011;10652;50.306;8.570;2023-06-24T03:46:49;3.83;;;3.17;;
20986;SDS011;10652;50.306;8.570;2023-06-24T03:50:51;4.15;;;3.42;;
20986;SDS011;10652;50.306;8.570;2023-06-24T03:54:56;5.05;;;3.20;;
20986;SDS011;10652;50.306;8.570;2023-06-24T03:58:58;3.92;;;3.47;;
20986;SDS011;10652;50.306;8.570;2023-06-24T04:03:00;4.25;;;3.17;;
20986;SDS011;10652;50.306;8.570;2023-06-24T04:07:03;5.38;;;3.63;;
20986;SDS011;10652;50.306;8.570;2023-06-24T04:11:07;4.82;;;3.47;;
20986;SDS011;10652;50.306;8.570;2023-06-24T04:15:10;4.78;;;3.33;;
20986;SDS011;10652;50.306;8.570;2023-06-24T04:19:12;5.45;;;3.30;;
20986;SDS011;10652;50.306;8.570;2023-06-24T04:23:14;4.60;;;3.33;;
20986;SDS011;10652;50.306;8.570;2023-06-24T04:27:17;5.95;;;3.08;;
20986;SDS011;10652;50.306;8.570;2023-06-24T04:31:20;4.05;;;2.97;;
20986;SDS011;10652;50.306;8.570;2023-06-24T04:35:22;3.35;;;3.05;;
20986;SDS011;10652;50.306;8.570;2023-06-24T04:39:24;3.20;;;2.80;;
20986;SDS011;10652;50.306;8.570;2023-06-24T04:43:26;3.08;;;2.80;;
20986;SDS011;10652;50.306;8.570;2023-06-24T04:47:31;3.67;;;2.90;;
20986;SDS011;10652;50.306;8.570;2023-06-24T04:51:33;3.90;;;2.83;;
20986;SDS011;10652;50.306;8.570;2023-06-24T04:55:36;3.80;;;2.95;;
20986;SDS011;10652;50.306;8.570;2023-06-24T04:59:38;3.80;;;2.90;;
20986;SDS011;10652;50.306;8.570;2023-06-24T05:03:41;3.10;;;2.80;;
20986;SDS011;10652;50.306;8.570;2023-06-24T05:07:43;3.80;;;2.95;;
20986;SDS011;10652;50.306;8.570;2023-06-24T05:11:45;3.00;;;2.67;;
20986;SDS011;10652;50.306;8.570;2023-06-24T05:15:47;3.88;;;3.00;;
20986;SDS011;10652;50.306;8.570;2023-06-24T05:19:49;5.45;;;3.00;;
20986;SDS011;10652;50.306;8.570;2023-06-24T05:23:51;5.18;;;2.92;;
20986;SDS011;10652;50.306;8.570;2023-06-24T05:27:53;3.75;;;3.25;;
20986;SDS011;10652;50.306;8.570;2023-06-24T05:31:56;3.33;;;3.00;;
20986;SDS011;10652;50.306;8.570;2023-06-24T05:35:58;3.55;;;2.88;;
20986;SDS011;10652;50.306;8.570;2023-06-24T05:40:00;4.30;;;2.97;;
20986;SDS011;10652;50.306;8.570;2023-06-24T05:44:04;4.47;;;2.97;;
20986;SDS011;10652;50.306;8.570;2023-06-24T05:48:10;4.10;;;3.00;;
20986;SDS011;10652;50.306;8.570;2023-06-24T05:52:13;4.43;;;3.17;;
20986;SDS011;10652;50.306;8.570;2023-06-24T05:56:15;4.05;;;3.22;;
20986;SDS011;10652;50.306;8.570;2023-06-24T06:00:17;4.68;;;3.30;;
20986;SDS011;10652;50.306;8.570;2023-06-24T06:04:20;4.10;;;3.13;;
20986;SDS011;10652;50.306;8.570;2023-06-24T06:08:22;3.65;;;3.10;;
20986;SDS011;10652;50.306;8.570;2023-06-24T06:12:24;3.28;;;2.97;;
20986;SDS011;10652;50.306;8.570;2023-06-24T06:16:26;4.93;;;3.40;;
20986;SDS011;10652;50.306;8.570;2023-06-24T06:20:30;4.50;;;3.00;;
20986;SDS011;10652;50.306;8.570;2023-06-24T06:24:32;3.30;;;3.00;;
20986;SDS011;10652;50.306;8.570;2023-06-24T06:28:34;3.63;;;3.28;;
20986;SDS011;10652;50.306;8.570;2023-06-24T06:32:36;3.20;;;2.90;;
20986;SDS011;10652;50.306;8.570;2023-06-24T06:36:38;3.22;;;2.88;;
20986;SDS011;10652;50.306;8.570;2023-06-24T06:40:40;3.00;;;2.70;;
20986;SDS011;10652;50.306;8.570;2023-06-24T06:44:43;4.43;;;2.95;;
20986;SDS011;10652;50.306;8.570;2023-06-24T06:48:45;4.07;;;2.88;;
20986;SDS011;10652;50.306;8.570;2023-06-24T06:52:47;3.22;;;2.78;;
20986;SDS011;10652;50.306;8.570;2023-06-24T06:56:49;3.30;;;2.78;;
20986;SDS011;10652;50.306;8.570;2023-06-24T07:00:51;3.08;;;2.75;;
20986;SDS011;10652;50.306;8.570;2023-06-24T07:04:54;4.15;;;2.80;;
20986;SDS011;10652;50.306;8.570;2023-06-24T07:08:56;3.22;;;2.90;;
20986;SDS011;10652;50.306;8.570;2023-06-24T07:12:58;4.82;;;2.58;;
20986;SDS011;10652;50.306;8.570;2023-06-24T07:17:00;3.20;;;2.60;;
20986;SDS011;10652;50.306;8.570;2023-06-24T07:21:02;3.50;;;2.28;;
20986;SDS011;10652;50.306;8.570;2023-06-24T07:25:05;3.35;;;2.83;;
20986;SDS011;10652;50.306;8.570;2023-06-24T07:29:07;4.03;;;2.85;;
20986;SDS011;10652;50.306;8.570;2023-06-24T07:33:11;4.00;;;3.05;;
20986;SDS011;10652;50.306;8.570;2023-06-24T07:37:13;5.43;;;3.13;;
20986;SDS011;10652;50.306;8.570;2023-06-24T07:41:25;3.22;;;2.92;;
20986;SDS011;10652;50.306;8.570;2023-06-24T07:45:27;3.40;;;2.65;;
20986;SDS011;10652;50.306;8.570;2023-06-24T07:49:30;4.32;;;2.80;;
20986;SDS011;10652;50.306;8.570;2023-06-24T07:53:32;3.15;;;2.75;;
20986;SDS011;10652;50.306;8.570;2023-06-24T07:57:35;3.38;;;3.03;;
20986;SDS011;10652;50.306;8.570;2023-06-24T08:01:37;3.65;;;3.17;;
20986;SDS011;10652;50.306;8.570;2023-06-24T08:05:39;4.00;;;3.17;;
20986;SDS011;10652;50.306;8.570;2023-06-24T08:09:41;5.03;;;3.70;;
20986;SDS011;10652;50.306;8.570;2023-06-24T08:13:44;4.95;;;3.30;;
20986;SDS011;10652;50.306;8.570;2023-06-24T08:17:50;4.50;;;3.40;;
20986;SDS011;10652;50.306;8.570;2023-06-24T08:21:56;4.03;;;3.53;;
20986;SDS011;10652;50.306;8.570;2023-06-24T08:25:58;4.95;;;4.45;;
20986;SDS011;10652;50.306;8.570;2023-06-24T08:30:17;7.50;;;4.57;;
20986;SDS011;10652;50.306;8.570;2023-06-24T08:34:19;4.00;;;3.33;;
20986;SDS011;10652;50.306;8.570;2023-06-24T08:38:22;6.07;;;4.05;;
20986;SDS011;10652;50.306;8.570;2023-06-24T08:42:24;4.68;;;4.13;;
20986;SDS011;10652;50.306;8.570;2023-06-24T08:46:26;5.55;;;4.03;;
20986;SDS011;10652;50.306;8.570;2023-06-24T08:50:31;5.75;;;4.10;;
20986;SDS011;10652;50.306;8.570;2023-06-24T08:54:37;4.93;;;4.05;;
20986;SDS011;10652;50.306;8.570;2023-06-24T08:58:42;5.75;;;4.00;;
20986;SDS011;10652;50.306;8.570;2023-06-24T09:02:44;4.00;;;3.40;;
20986;SDS011;10652;50.306;8.570;2023-06-24T09:06:48;4.80;;;4.10;;
20986;SDS011;10652;50.306;8.570;2023-06-24T09:10:53;4.93;;;3.40;;
20986;SDS011;10652;50.306;8.570;2023-06-24T09:14:57;4.88;;;3.95;;
20986;SDS011;10652;50.306;8.570;2023-06-24T09:18:59;5.20;;;3.90;;
20986;SDS011;10652;50.306;8.570;2023-06-24T09:23:02;4.07;;;3.53;;
20986;SDS011;10652;50.306;8.570;2023-06-24T09:27:05;3.97;;;3.33;;
20986;SDS011;10652;50.306;8.570;2023-06-24T09:31:08;5.55;;;3.40;;
20986;SDS011;10652;50.306;8.570;2023-06-24T09:39:18;5.45;;;3.42;;
20986;SDS011;10652;50.306;8.570;2023-06-24T09:43:34;4.70;;;3.30;;
20986;SDS011;10652;50.306;8.570;2023-06-24T09:47:40;4.60;;;3.63;;
20986;SDS011;10652;50.306;8.570;2023-06-24T09:51:43;4.57;;;4.07;;
20986;SDS011;10652;50.306;8.570;2023-06-24T09:55:47;6.93;;;3.95;;
20986;SDS011;10652;50.306;8.570;2023-06-24T09:59:50;8.57;;;3.80;;
20986;SDS011;10652;50.306;8.570;2023-06-24T10:03:53;4.78;;;3.67;;
20986;SDS011;10652;50.306;8.570;2023-06-24T10:07:56;6.05;;;3.72;;
20986;SDS011;10652;50.306;8.570;2023-06-24T10:11:59;5.88;;;3.70;;
20986;SDS011;10652;50.306;8.570;2023-06-24T10:16:02;4.28;;;3.72;;
20986;SDS011;10652;50.306;8.570;2023-06-24T10:20:04;5.28;;;3.90;;
20986;SDS011;10652;50.306;8.570;2023-06-24T10:24:10;3.67;;;3.30;;
20986;SDS011;10652;50.306;8.570;2023-06-24T10:28:12;6.05;;;3.90;;
20986;SDS011;10652;50.306;8.570;2023-06-24T10:32:14;4.43;;;3.40;;
20986;SDS011;10652;50.306;8.570;2023-06-24T10:36:32;4.18;;;3.60;;
20986;SDS011;10652;50.306;8.570;2023-06-24T10:40:41;4.88;;;4.13;;
20986;SDS011;10652;50.306;8.570;2023-06-24T10:44:48;3.90;;;3.40;;
20986;SDS011;10652;50.306;8.570;2023-06-24T10:48:51;3.47;;;3.10;;
20986;SDS011;10652;50.306;8.570;2023-06-24T10:52:53;5.35;;;3.35;;
20986;SDS011;10652;50.306;8.570;2023-06-24T10:56:57;4.75;;;3.45;;
20986;SDS011;10652;50.306;8.570;2023-06-24T11:01:06;3.28;;;3.00;;
20986;SDS011;10652;50.306;8.570;2023-06-24T11:05:09;3.33;;;3.03;;
20986;SDS011;10652;50.306;8.570;2023-06-24T11:09:11;3.95;;;3.60;;
20986;SDS011;10652;50.306;8.570;2023-06-24T11:13:14;3.53;;;3.20;;
20986;SDS011;10652;50.306;8.570;2023-06-24T11:17:16;4.15;;;3.75;;
20986;SDS011;10652;50.306;8.570;2023-06-24T11:21:27;4.75;;;3.67;;
20986;SDS011;10652;50.306;8.570;2023-06-24T11:25:31;4.38;;;3.40;;
20986;SDS011;10652;50.306;8.570;2023-06-24T11:29:33;4.35;;;3.30;;
20986;SDS011;10652;50.306;8.570;2023-06-24T11:33:36;4.68;;;3.80;;
20986;SDS011;10652;50.306;8.570;2023-06-24T11:37:40;4.80;;;4.25;;
20986;SDS011;10652;50.306;8.570;2023-06-24T11:41:45;4.80;;;4.30;;
20986;SDS011;10652;50.306;8.570;2023-06-24T11:45:48;4.13;;;3.72;;
20986;SDS011;10652;50.306;8.570;2023-06-24T11:49:59;4.47;;;4.07;;
20986;SDS011;10652;50.306;8.570;2023-06-24T11:54:05;4.85;;;4.20;;
20986;SDS011;10652;50.306;8.570;2023-06-24T11:58:07;4.10;;;3.70;;
20986;SDS011;10652;50.306;8.570;2023-06-24T12:02:13;5.68;;;4.60;;
20986;SDS011;10652;50.306;8.570;2023-06-24T12:06:15;4.13;;;3.72;;
20986;SDS011;10652;50.306;8.570;2023-06-24T12:10:17;5.78;;;4.13;;
20986;SDS011;10652;50.306;8.570;2023-06-24T12:14:20;4.43;;;3.55;;
20986;SDS011;10652;50.306;8.570;2023-06-24T12:18:22;4.50;;;3.80;;
20986;SDS011;10652;50.306;8.570;2023-06-24T12:22:24;4.80;;;3.75;;
20986;SDS011;10652;50.306;8.570;2023-06-24T12:26:26;4.22;;;3.83;;
20986;SDS011;10652;50.306;8.570;2023-06-24T12:30:28;3.72;;;3.42;;
20986;SDS011;10652;50.306;8.570;2023-06-24T12:34:31;4.43;;;3.50;;
20986;SDS011;10652;50.306;8.570;2023-06-24T12:38:33;4.50;;;4.10;;
20986;SDS011;10652;50.306;8.570;2023-06-24T12:42:35;4.10;;;3.70;;
20986;SDS011;10652;50.306;8.570;2023-06-24T12:46:37;5.43;;;3.70;;
20986;SDS011;10652;50.306;8.570;2023-06-24T12:50:39;5.03;;;3.80;;
20986;SDS011;10652;50.306;8.570;2023-06-24T12:54:41;4.88;;;4.38;;
20986;SDS011;10652;50.306;8.570;2023-06-24T12:58:43;5.40;;;3.80;;
20986;SDS011;10652;50.306;8.570;2023-06-24T13:02:46;4.50;;;3.70;;
20986;SDS011;10652;50.306;8.570;2023-06-24T13:06:48;4.35;;;3.95;;
20986;SDS011;10652;50.306;8.570;2023-06-24T13:10:51;4.30;;;3.90;;
20986;SDS011;10652;50.306;8.570;2023-06-24T13:14:53;3.30;;;3.00;;
20986;SDS011;10652;50.306;8.570;2023-06-24T13:18:55;5.35;;;3.65;;
20986;SDS011;10652;50.306;8.570;2023-06-24T13:22:57;4.55;;;4.07;;
20986;SDS011;10652;50.306;8.570;2023-06-24T13:26:59;3.78;;;3.47;;
20986;SDS011;10652;50.306;8.570;2023-06-24T13:31:01;5.28;;;3.58;;
20986;SDS011;10652;50.306;8.570;2023-06-24T13:35:04;3.65;;;3.35;;
20986;SDS011;10652;50.306;8.570;2023-06-24T13:39:07;4.22;;;3.83;;
20986;SDS011;10652;50.306;8.570;2023-06-24T13:43:10;4.80;;;3.70;;
20986;SDS011;10652;50.306;8.570;2023-06-24T13:47:14;4.03;;;3.58;;
20986;SDS011;10652;50.306;8.570;2023-06-24T13:51:20;5.22;;;3.70;;
20986;SDS011;10652;50.306;8.570;2023-06-24T13:55:22;4.25;;;3.90;;
20986;SDS011;10652;50.306;8.570;2023-06-24T13:59:24;5.90;;;4.03;;
20986;SDS011;10652;50.306;8.570;2023-06-24T14:03:26;4.20;;;3.80;;
20986;SDS011;10652;50.306;8.570;2023-06-24T14:07:29;3.95;;;3.53;;
20986;SDS011;10652;50.306;8.570;2023-06-24T14:11:31;3.78;;;3.25;;
20986;SDS011;10652;50.306;8.570;2023-06-24T14:15:33;4.20;;;3.80;;
20986;SDS011;10652;50.306;8.570;2023-06-24T14:19:35;4.07;;;3.55;;
20986;SDS011;10652;50.306;8.570;2023-06-24T14:23:37;4.20;;;3.80;;
20986;SDS011;10652;50.306;8.570;2023-06-24T14:27:42;4.70;;;3.80;;
20986;SDS011;10652;50.306;8.570;2023-06-24T14:31:44;5.63;;;4.20;;
20986;SDS011;10652;50.306;8.570;2023-06-24T14:35:46;3.45;;;3.17;;
20986;SDS011;10652;50.306;8.570;2023-06-24T14:39:48;4.80;;;3.38;;
20986;SDS011;10652;50.306;8.570;2023-06-24T14:43:50;4.78;;;3.40;;
20986;SDS011;10652;50.306;8.570;2023-06-24T14:47:53;3.70;;;3.20;;
20986;SDS011;10652;50.306;8.570;2023-06-24T14:51:55;4.38;;;3.35;;
20986;SDS011;10652;50.306;8.570;2023-06-24T14:55:57;3.38;;;3.13;;
20986;SDS011;10652;50.306;8.570;2023-06-24T14:59:59;4.13;;;3.10;;
20986;SDS011;10652;50.306;8.570;2023-06-24T15:04:01;4.03;;;3.63;;
20986;SDS011;10652;50.306;8.570;2023-06-24T15:08:03;4.80;;;3.60;;
20986;SDS011;10652;50.306;8.570;2023-06-24T15:12:05;3.60;;;3.30;;
20986;SDS011;10652;50.306;8.570;2023-06-24T15:16:08;4.72;;;3.50;;
20986;SDS011;10652;50.306;8.570;2023-06-24T15:20:10;5.05;;;3.88;;
20986;SDS011;10652;50.306;8.570;2023-06-24T15:24:13;3.80;;;3.50;;
20986;SDS011;10652;50.306;8.570;2023-06-24T15:28:15;4.03;;;3.53;;
20986;SDS011;10652;50.306;8.570;2023-06-24T15:32:17;4.93;;;4.00;;
20986;SDS011;10652;50.306;8.570;2023-06-24T15:36:19;4.97;;;3.33;;
20986;SDS011;10652;50.306;8.570;2023-06-24T15:40:23;4.03;;;3.33;;
20986;SDS011;10652;50.306;8.570;2023-06-24T15:44:26;4.22;;;3.40;;
20986;SDS011;10652;50.306;8.570;2023-06-24T15:48:28;4.00;;;3.60;;
20986;SDS011;10652;50.306;8.570;2023-06-24T15:52:30;3.97;;;3.58;;
20986;SDS011;10652;50.306;8.570;2023-06-24T15:56:32;3.55;;;3.25;;
20986;SDS011;10652;50.306;8.570;2023-06-24T16:00:34;5.75;;;3.90;;
20986;SDS011;10652;50.306;8.570;2023-06-24T16:04:36;3.55;;;3.20;;
20986;SDS011;10652;50.306;8.570;2023-06-24T16:08:38;4.38;;;3.30;;
20986;SDS011;10652;50.306;8.570;2023-06-24T16:12:40;5.70;;;4.13;;
20986;SDS011;10652;50.306;8.570;2023-06-24T16:16:43;4.35;;;3.83;;
20986;SDS011;10652;50.306;8.570;2023-06-24T16:20:45;3.88;;;3.58;;
20986;SDS011;10652;50.306;8.570;2023-06-24T16:24:47;3.80;;;3.50;;
20986;SDS011;10652;50.306;8.570;2023-06-24T16:28:49;4.15;;;3.85;;
20986;SDS011;10652;50.306;8.570;2023-06-24T16:32:52;5.22;;;3.72;;
20986;SDS011;10652;50.306;8.570;2023-06-24T16:36:54;4.53;;;3.72;;
20986;SDS011;10652;50.306;8.570;2023-06-24T16:40:56;4.32;;;3.90;;
20986;SDS011;10652;50.306;8.570;2023-06-24T16:44:58;3.80;;;3.42;;
20986;SDS011;10652;50.306;8.570;2023-06-24T16:49:00;4.10;;;3.70;;
20986;SDS011;10652;50.306;8.570;2023-06-24T16:53:08;3.60;;;3.30;;
20986;SDS011;10652;50.306;8.570;2023-06-24T16:57:11;4.10;;;3.38;;
20986;SDS011;10652;50.306;8.570;2023-06-24T17:01:13;3.92;;;3.40;;
20986;SDS011;10652;50.306;8.570;2023-06-24T17:05:15;3.95;;;3.42;;
20986;SDS011;10652;50.306;8.570;2023-06-24T17:09:17;4.93;;;3.47;;
20986;SDS011;10652;50.306;8.570;2023-06-24T17:13:19;4.07;;;3.58;;
20986;SDS011;10652;50.306;8.570;2023-06-24T17:17:21;4.45;;;3.50;;
20986;SDS011;10652;50.306;8.570;2023-06-24T17:21:23;3.50;;;3.17;;
20986;SDS011;10652;50.306;8.570;2023-06-24T17:25:25;3.40;;;3.10;;
20986;SDS011;10652;50.306;8.570;2023-06-24T17:29:28;3.83;;;3.50;;
20986;SDS011;10652;50.306;8.570;2023-06-24T17:33:30;3.83;;;3.28;;
20986;SDS011;10652;50.306;8.570;2023-06-24T17:37:33;4.22;;;3.13;;
20986;SDS011;10652;50.306;8.570;2023-06-24T17:41:35;4.53;;;3.55;;
20986;SDS011;10652;50.306;8.570;2023-06-24T17:45:37;3.80;;;3.38;;
20986;SDS011;10652;50.306;8.570;2023-06-24T17:49:39;3.83;;;3.42;;
20986;SDS011;10652;50.306;8.570;2023-06-24T17:53:41;3.95;;;3.40;;
20986;SDS011;10652;50.306;8.570;2023-06-24T17:57:43;3.63;;;3.30;;
20986;SDS011;10652;50.306;8.570;2023-06-24T18:01:46;4.22;;;3.50;;
20986;SDS011;10652;50.306;8.570;2023-06-24T18:05:48;3.75;;;3.40;;
20986;SDS011;10652;50.306;8.570;2023-06-24T18:09:51;4.72;;;3.35;;
20986;SDS011;10652;50.306;8.570;2023-06-24T18:13:53;3.70;;;3.35;;
20986;SDS011;10652;50.306;8.570;2023-06-24T18:17:55;3.70;;;3.20;;
20986;SDS011;10652;50.306;8.570;2023-06-24T18:21:57;3.85;;;3.33;;
20986;SDS011;10652;50.306;8.570;2023-06-24T18:26:00;3.92;;;3.47;;
20986;SDS011;10652;50.306;8.570;2023-06-24T18:30:02;4.25;;;3.75;;
20986;SDS011;10652;50.306;8.570;2023-06-24T18:34:04;3.60;;;3.30;;
20986;SDS011;10652;50.306;8.570;2023-06-24T18:38:06;4.70;;;3.42;;
20986;SDS011;10652;50.306;8.570;2023-06-24T18:42:08;4.03;;;3.60;;
20986;SDS011;10652;50.306;8.570;2023-06-24T18:46:10;4.40;;;3.30;;
20986;SDS011;10652;50.306;8.570;2023-06-24T18:50:13;4.28;;;3.83;;
20986;SDS011;10652;50.306;8.570;2023-06-24T18:54:15;3.90;;;3.60;;
20986;SDS011;10652;50.306;8.570;2023-06-24T18:58:18;4.78;;;3.45;;
20986;SDS011;10652;50.306;8.570;2023-06-24T19:02:20;4.13;;;3.63;;
20986;SDS011;10652;50.306;8.570;2023-06-24T19:06:22;4.55;;;4.05;;
20986;SDS011;10652;50.306;8.570;2023-06-24T19:10:25;6.90;;;4.10;;
20986;SDS011;10652;50.306;8.570;2023-06-24T19:14:27;9.27;;;4.70;;
20986;SDS011;10652;50.306;8.570;2023-06-24T19:18:30;5.90;;;4.70;;
20986;SDS011;10652;50.306;8.570;2023-06-24T19:22:32;4.45;;;3.80;;
20986;SDS011;10652;50.306;8.570;2023-06-24T19:26:34;4.78;;;4.30;;
20986;SDS011;10652;50.306;8.570;2023-06-24T19:30:36;4.35;;;3.90;;
20986;SDS011;10652;50.306;8.570;2023-06-24T19:34:39;7.07;;;4.60;;
20986;SDS011;10652;50.306;8.570;2023-06-24T19:38:41;4.80;;;4.40;;
20986;SDS011;10652;50.306;8.570;2023-06-24T19:42:43;8.90;;;7.00;;
20986;SDS011;10652;50.306;8.570;2023-06-24T19:46:45;8.27;;;5.97;;
20986;SDS011;10652;50.306;8.570;2023-06-24T19:50:48;7.53;;;5.60;;
20986;SDS011;10652;50.306;8.570;2023-06-24T19:54:50;5.47;;;4.50;;
20986;SDS011;10652;50.306;8.570;2023-06-24T19:58:52;5.15;;;4.05;;
20986;SDS011;10652;50.306;8.570;2023-06-24T20:02:55;4.13;;;3.78;;
20986;SDS011;10652;50.306;8.570;2023-06-24T20:07:00;6.50;;;4.70;;
20986;SDS011;10652;50.306;8.570;2023-06-24T20:11:03;4.40;;;4.00;;
20986;SDS011;10652;50.306;8.570;2023-06-24T20:15:06;6.65;;;4.00;;
20986;SDS011;10652;50.306;8.570;2023-06-24T20:19:08;6.35;;;4.15;;
20986;SDS011;10652;50.306;8.570;2023-06-24T20:23:10;4.50;;;4.10;;
20986;SDS011;10652;50.306;8.570;2023-06-24T20:27:12;8.05;;;4.70;;
20986;SDS011;10652;50.306;8.570;2023-06-24T20:31:15;4.95;;;4.07;;
20986;SDS011;10652;50.306;8.570;2023-06-24T20:35:17;5.32;;;4.65;;
20986;SDS011;10652;50.306;8.570;2023-06-24T20:39:19;4.93;;;4.43;;
20986;SDS011;10652;50.306;8.570;2023-06-24T20:43:21;4.88;;;4.47;;
20986;SDS011;10652;50.306;8.570;2023-06-24T20:47:24;8.02;;;4.88;;
20986;SDS011;10652;50.306;8.570;2023-06-24T20:51:30;4.35;;;3.83;;
20986;SDS011;10652;50.306;8.570;2023-06-24T20:55:33;4.75;;;4.15;;
20986;SDS011;10652;50.306;8.570;2023-06-24T20:59:35;5.03;;;4.00;;
20986;SDS011;10652;50.306;8.570;2023-06-24T21:03:38;5.03;;;4.53;;
20986;SDS011;10652;50.306;8.570;2023-06-24T21:07:42;4.82;;;4.10;;
20986;SDS011;10652;50.306;8.570;2023-06-24T21:11:44;4.80;;;4.10;;
20986;SDS011;10652;50.306;8.570;2023-06-24T21:15:46;3.97;;;3.58;;
20986;SDS011;10652;50.306;8.570;2023-06-24T21:19:48;5.07;;;3.63;;
20986;SDS011;10652;50.306;8.570;2023-06-24T21:23:50;4.63;;;4.10;;
20986;SDS011;10652;50.306;8.570;2023-06-24T21:27:53;4.90;;;4.47;;
20986;SDS011;10652;50.306;8.570;2023-06-24T21:31:55;5.40;;;4.90;;
20986;SDS011;10652;50.306;8.570;2023-06-24T21:35:57;5.63;;;5.13;;
20986;SDS011;10652;50.306;8.570;2023-06-24T21:40:02;5.50;;;5.00;;
20986;SDS011;10652;50.306;8.570;2023-06-24T21:44:05;6.07;;;5.40;;
20986;SDS011;10652;50.306;8.570;2023-06-24T21:48:07;6.32;;;5.57;;
20986;SDS011;10652;50.306;8.570;2023-06-24T21:52:09;8.20;;;6.00;;
20986;SDS011;10652;50.306;8.570;2023-06-24T21:56:11;6.22;;;5.63;;
20986;SDS011;10652;50.306;8.570;2023-06-24T22:00:13;6.18;;;5.57;;
20986;SDS011;10652;50.306;8.570;2023-06-24T22:04:20;5.85;;;5.30;;
20986;SDS011;10652;50.306;8.570;2023-06-24T22:08:22;6.70;;;5.90;;
20986;SDS011;10652;50.306;8.570;2023-06-24T22:12:25;7.32;;;5.80;;
20986;SDS011;10652;50.306;8.570;2023-06-24T22:16:27;8.75;;;5.60;;
20986;SDS011;10652;50.306;8.570;2023-06-24T22:20:29;5.50;;;4.75;;
20986;SDS011;10652;50.306;8.570;2023-06-24T22:24:34;5.72;;;5.15;;
20986;SDS011;10652;50.306;8.570;2023-06-24T22:28:36;8.18;;;5.22;;
20986;SDS011;10652;50.306;8.570;2023-06-24T22:32:38;5.47;;;4.97;;
20986;SDS011;10652;50.306;8.570;2023-06-24T22:36:41;6.00;;;4.95;;
20986;SDS011;10652;50.306;8.570;2023-06-24T22:40:43;5.68;;;5.13;;
20986;SDS011;10652;50.306;8.570;2023-06-24T22:44:45;5.97;;;5.38;;
20986;SDS011;10652;50.306;8.570;2023-06-24T22:48:47;8.02;;;5.70;;
20986;SDS011;10652;50.306;8.570;2023-06-24T22:52:49;6.00;;;5.43;;
20986;SDS011;10652;50.306;8.570;2023-06-24T22:56:51;7.18;;;5.78;;
20986;SDS011;10652;50.306;8.570;2023-06-24T23:00:56;6.22;;;5.30;;
20986;SDS011;10652;50.306;8.570;2023-06-24T23:04:58;6.68;;;5.90;;
20986;SDS011;10652;50.306;8.570;2023-06-24T23:09:01;7.15;;;5.88;;
20986;SDS011;10652;50.306;8.570;2023-06-24T23:13:03;6.78;;;6.07;;
20986;SDS011;10652;50.306;8.570;2023-06-24T23:17:06;7.18;;;5.60;;
20986;SDS011;10652;50.306;8.570;2023-06-24T23:21:09;8.20;;;5.80;;
20986;SDS011;10652;50.306;8.570;2023-06-24T23:25:11;6.72;;;6.03;;
20986;SDS011;10652;50.306;8.570;2023-06-24T23:29:13;6.70;;;5.30;;
20986;SDS011;10652;50.306;8.570;2023-06-24T23:33:16;7.03;;;5.97;;
20986;SDS011;10652;50.306;8.570;2023-06-24T23:37:19;6.38;;;5.70;;
20986;SDS011;10652;50.306;8.570;2023-06-24T23:41:23;6.53;;;5.80;;
20986;SDS011;10652;50.306;8.570;2023-06-24T23:45:26;5.45;;;4.88;;
20986;SDS011;10652;50.306;8.570;2023-06-24T23:49:28;6.68;;;5.32;;
20986;SDS011;10652;50.306;8.570;2023-06-24T23:53:31;5.40;;;4.90;;
20986;SDS011;10652;50.306;8.570;2023-06-24T23:57:33;6.82;;;4.80;;
